Dayton, Pennsylvania
Current Conditions -  °F | °C
As of 4:35 AM on Sunday 26 Oct 2014 (Local Time) from KIDI Reporting Station
Clear Clear  
Wind Chill: 46°   Ceiling: Unl
Heat Index: 48°   Visibility: 10mi
Dew Point: 34°   Wind: 6mph
Humidity: 57%   Direction: 290°WNW
Pressure: 29.81"   Gusts: NA
Location:  40.88°N, 79.24°W
Report Text: KIDI 260835Z AUTO 29005KT 10SM CLR 09/01 A2981 RMK A01
Loading
Personal Weather Stations






























Interactive Weather Map
Tropical Storm Tracking
New forecast layout! Learn more

10-Day Weather Forecast

Advertisements
Track Severe Weather on mobile